sensor_id;sensor_type;location;lat;lon;timestamp;P1;durP1;ratioP1;P2;durP2;ratioP2
22254;SDS011;11296;42.684;23.322;2023-02-01T00:01:25;7.33;;;4.70;;
22254;SDS011;11296;42.684;23.322;2023-02-01T00:03:50;7.70;;;5.00;;
22254;SDS011;11296;42.684;23.322;2023-02-01T00:06:16;6.60;;;5.20;;
22254;SDS011;11296;42.684;23.322;2023-02-01T00:08:45;5.63;;;4.50;;
22254;SDS011;11296;42.684;23.322;2023-02-01T00:11:11;5.90;;;4.50;;
22254;SDS011;11296;42.684;23.322;2023-02-01T00:13:40;7.33;;;4.63;;
22254;SDS011;11296;42.684;23.322;2023-02-01T00:16:07;6.93;;;4.53;;
22254;SDS011;11296;42.684;23.322;2023-02-01T00:18:39;5.97;;;4.60;;
22254;SDS011;11296;42.684;23.322;2023-02-01T00:21:06;6.47;;;3.93;;
22254;SDS011;11296;42.684;23.322;2023-02-01T00:23:35;5.77;;;4.50;;
22254;SDS011;11296;42.684;23.322;2023-02-01T00:33:56;5.87;;;4.60;;
22254;SDS011;11296;42.684;23.322;2023-02-01T00:36:36;6.20;;;4.50;;
22254;SDS011;11296;42.684;23.322;2023-02-01T00:39:07;5.80;;;4.17;;
22254;SDS011;11296;42.684;23.322;2023-02-01T00:41:33;6.30;;;4.20;;
22254;SDS011;11296;42.684;23.322;2023-02-01T00:43:59;5.13;;;4.17;;
22254;SDS011;11296;42.684;23.322;2023-02-01T00:46:24;4.77;;;3.87;;
22254;SDS011;11296;42.684;23.322;2023-02-01T00:52:28;3.90;;;2.87;;
22254;SDS011;11296;42.684;23.322;2023-02-01T00:54:54;4.97;;;3.87;;
22254;SDS011;11296;42.684;23.322;2023-02-01T00:57:21;5.43;;;3.80;;
22254;SDS011;11296;42.684;23.322;2023-02-01T00:59:49;4.73;;;3.37;;
22254;SDS011;11296;42.684;23.322;2023-02-01T01:02:15;4.27;;;3.60;;
22254;SDS011;11296;42.684;23.322;2023-02-01T01:04:41;4.97;;;3.50;;
22254;SDS011;11296;42.684;23.322;2023-02-01T01:07:09;5.63;;;3.17;;
22254;SDS011;11296;42.684;23.322;2023-02-01T01:09:37;8.20;;;3.67;;
22254;SDS011;11296;42.684;23.322;2023-02-01T01:12:03;6.53;;;3.60;;
22254;SDS011;11296;42.684;23.322;2023-02-01T01:14:32;4.53;;;3.33;;
22254;SDS011;11296;42.684;23.322;2023-02-01T01:16:57;5.00;;;3.50;;
22254;SDS011;11296;42.684;23.322;2023-02-01T01:19:23;4.70;;;3.13;;
22254;SDS011;11296;42.684;23.322;2023-02-01T01:21:49;3.53;;;3.13;;
22254;SDS011;11296;42.684;23.322;2023-02-01T01:24:16;5.67;;;3.43;;
22254;SDS011;11296;42.684;23.322;2023-02-01T01:26:46;6.13;;;3.70;;
22254;SDS011;11296;42.684;23.322;2023-02-01T01:29:12;5.33;;;3.37;;
22254;SDS011;11296;42.684;23.322;2023-02-01T01:31:38;4.03;;;3.23;;
22254;SDS011;11296;42.684;23.322;2023-02-01T01:34:03;4.33;;;2.80;;
22254;SDS011;11296;42.684;23.322;2023-02-01T01:36:31;3.90;;;3.07;;
22254;SDS011;11296;42.684;23.322;2023-02-01T01:38:57;5.23;;;3.20;;
22254;SDS011;11296;42.684;23.322;2023-02-01T01:47:07;4.70;;;3.20;;
22254;SDS011;11296;42.684;23.322;2023-02-01T01:49:38;3.87;;;2.90;;
22254;SDS011;11296;42.684;23.322;2023-02-01T01:52:07;4.80;;;2.90;;
22254;SDS011;11296;42.684;23.322;2023-02-01T01:54:33;3.17;;;2.60;;
22254;SDS011;11296;42.684;23.322;2023-02-01T01:57:01;3.93;;;2.87;;
22254;SDS011;11296;42.684;23.322;2023-02-01T01:59:29;4.33;;;3.17;;
22254;SDS011;11296;42.684;23.322;2023-02-01T02:01:58;6.70;;;3.10;;
22254;SDS011;11296;42.684;23.322;2023-02-01T02:04:27;4.57;;;2.90;;
22254;SDS011;11296;42.684;23.322;2023-02-01T02:06:57;6.77;;;3.07;;
22254;SDS011;11296;42.684;23.322;2023-02-01T02:09:26;4.93;;;3.30;;
22254;SDS011;11296;42.684;23.322;2023-02-01T02:11:52;5.50;;;3.03;;
22254;SDS011;11296;42.684;23.322;2023-02-01T02:14:18;4.97;;;2.83;;
22254;SDS011;11296;42.684;23.322;2023-02-01T02:34:44;6.67;;;3.30;;
22254;SDS011;11296;42.684;23.322;2023-02-01T02:39:49;4.90;;;2.63;;
22254;SDS011;11296;42.684;23.322;2023-02-01T02:42:29;3.70;;;2.70;;
22254;SDS011;11296;42.684;23.322;2023-02-01T02:45:41;4.97;;;2.63;;
22254;SDS011;11296;42.684;23.322;2023-02-01T02:50:59;5.03;;;3.13;;
22254;SDS011;11296;42.684;23.322;2023-02-01T02:54:02;5.80;;;4.10;;
22254;SDS011;11296;42.684;23.322;2023-02-01T02:56:51;4.57;;;3.07;;
22254;SDS011;11296;42.684;23.322;2023-02-01T02:59:37;3.60;;;2.77;;
22254;SDS011;11296;42.684;23.322;2023-02-01T03:02:23;4.50;;;3.00;;
22254;SDS011;11296;42.684;23.322;2023-02-01T03:05:11;4.03;;;2.57;;
22254;SDS011;11296;42.684;23.322;2023-02-01T03:10:10;3.10;;;2.50;;
22254;SDS011;11296;42.684;23.322;2023-02-01T03:12:42;2.77;;;2.23;;
22254;SDS011;11296;42.684;23.322;2023-02-01T03:15:31;3.67;;;1.97;;
22254;SDS011;11296;42.684;23.322;2023-02-01T03:17:57;3.50;;;2.20;;
22254;SDS011;11296;42.684;23.322;2023-02-01T03:20:24;3.77;;;2.67;;
22254;SDS011;11296;42.684;23.322;2023-02-01T03:22:50;3.87;;;2.10;;
22254;SDS011;11296;42.684;23.322;2023-02-01T03:25:18;4.90;;;2.20;;
22254;SDS011;11296;42.684;23.322;2023-02-01T03:27:53;3.23;;;1.90;;
22254;SDS011;11296;42.684;23.322;2023-02-01T03:30:22;3.30;;;2.50;;
22254;SDS011;11296;42.684;23.322;2023-02-01T03:32:59;3.60;;;2.33;;
22254;SDS011;11296;42.684;23.322;2023-02-01T03:38:23;3.17;;;2.30;;
22254;SDS011;11296;42.684;23.322;2023-02-01T03:40:52;2.93;;;2.20;;
22254;SDS011;11296;42.684;23.322;2023-02-01T03:43:19;2.70;;;2.20;;
22254;SDS011;11296;42.684;23.322;2023-02-01T03:45:52;3.63;;;2.13;;
22254;SDS011;11296;42.684;23.322;2023-02-01T03:48:18;2.97;;;2.13;;
22254;SDS011;11296;42.684;23.322;2023-02-01T03:50:45;3.80;;;2.50;;
22254;SDS011;11296;42.684;23.322;2023-02-01T03:53:16;3.23;;;1.63;;
22254;SDS011;11296;42.684;23.322;2023-02-01T03:55:47;4.73;;;2.37;;
22254;SDS011;11296;42.684;23.322;2023-02-01T03:58:16;3.70;;;2.07;;
22254;SDS011;11296;42.684;23.322;2023-02-01T04:00:49;4.07;;;2.07;;
22254;SDS011;11296;42.684;23.322;2023-02-01T04:03:15;3.63;;;2.10;;
22254;SDS011;11296;42.684;23.322;2023-02-01T04:05:41;2.80;;;2.20;;
22254;SDS011;11296;42.684;23.322;2023-02-01T04:08:09;2.70;;;2.00;;
22254;SDS011;11296;42.684;23.322;2023-02-01T04:10:34;3.57;;;2.30;;
22254;SDS011;11296;42.684;23.322;2023-02-01T04:13:02;3.40;;;2.10;;
22254;SDS011;11296;42.684;23.322;2023-02-01T04:15:31;4.37;;;2.60;;
22254;SDS011;11296;42.684;23.322;2023-02-01T04:17:57;2.93;;;2.30;;
22254;SDS011;11296;42.684;23.322;2023-02-01T04:20:24;5.97;;;2.63;;
22254;SDS011;11296;42.684;23.322;2023-02-01T04:22:51;5.87;;;2.60;;
22254;SDS011;11296;42.684;23.322;2023-02-01T04:25:17;4.33;;;2.47;;
22254;SDS011;11296;42.684;23.322;2023-02-01T04:27:45;3.97;;;1.80;;
22254;SDS011;11296;42.684;23.322;2023-02-01T04:30:11;4.80;;;2.27;;
22254;SDS011;11296;42.684;23.322;2023-02-01T04:32:39;2.90;;;2.40;;
22254;SDS011;11296;42.684;23.322;2023-02-01T04:35:05;3.03;;;1.80;;
22254;SDS011;11296;42.684;23.322;2023-02-01T04:37:31;2.83;;;2.23;;
22254;SDS011;11296;42.684;23.322;2023-02-01T04:39:56;4.03;;;2.23;;
22254;SDS011;11296;42.684;23.322;2023-02-01T04:42:22;3.27;;;2.33;;
22254;SDS011;11296;42.684;23.322;2023-02-01T04:44:48;6.30;;;2.53;;
22254;SDS011;11296;42.684;23.322;2023-02-01T04:47:13;5.30;;;2.90;;
22254;SDS011;11296;42.684;23.322;2023-02-01T04:49:40;3.03;;;2.50;;
22254;SDS011;11296;42.684;23.322;2023-02-01T04:52:09;4.30;;;2.97;;
22254;SDS011;11296;42.684;23.322;2023-02-01T04:54:35;5.57;;;2.90;;
22254;SDS011;11296;42.684;23.322;2023-02-01T04:57:03;8.13;;;3.20;;
22254;SDS011;11296;42.684;23.322;2023-02-01T04:59:29;5.27;;;2.90;;
22254;SDS011;11296;42.684;23.322;2023-02-01T05:01:55;3.33;;;2.53;;
22254;SDS011;11296;42.684;23.322;2023-02-01T05:04:25;6.73;;;3.00;;
22254;SDS011;11296;42.684;23.322;2023-02-01T05:06:51;5.70;;;3.30;;
22254;SDS011;11296;42.684;23.322;2023-02-01T05:09:18;3.43;;;2.53;;
22254;SDS011;11296;42.684;23.322;2023-02-01T05:11:46;5.07;;;3.13;;
22254;SDS011;11296;42.684;23.322;2023-02-01T05:14:30;4.87;;;3.53;;
22254;SDS011;11296;42.684;23.322;2023-02-01T05:16:59;6.17;;;3.47;;
22254;SDS011;11296;42.684;23.322;2023-02-01T05:19:26;6.97;;;4.43;;
22254;SDS011;11296;42.684;23.322;2023-02-01T05:21:51;7.47;;;4.07;;
22254;SDS011;11296;42.684;23.322;2023-02-01T05:24:18;6.53;;;3.90;;
22254;SDS011;11296;42.684;23.322;2023-02-01T05:26:51;5.37;;;3.27;;
22254;SDS011;11296;42.684;23.322;2023-02-01T05:29:16;6.00;;;3.20;;
22254;SDS011;11296;42.684;23.322;2023-02-01T05:31:44;7.40;;;3.83;;
22254;SDS011;11296;42.684;23.322;2023-02-01T05:34:09;5.43;;;3.63;;
22254;SDS011;11296;42.684;23.322;2023-02-01T05:36:35;9.57;;;5.03;;
22254;SDS011;11296;42.684;23.322;2023-02-01T05:39:00;5.87;;;3.50;;
22254;SDS011;11296;42.684;23.322;2023-02-01T05:41:26;5.00;;;3.40;;
22254;SDS011;11296;42.684;23.322;2023-02-01T05:43:55;5.90;;;3.17;;
22254;SDS011;11296;42.684;23.322;2023-02-01T05:46:20;9.07;;;3.97;;
22254;SDS011;11296;42.684;23.322;2023-02-01T05:48:52;6.50;;;3.93;;
22254;SDS011;11296;42.684;23.322;2023-02-01T05:51:18;5.77;;;3.43;;
22254;SDS011;11296;42.684;23.322;2023-02-01T05:53:43;4.23;;;2.77;;
22254;SDS011;11296;42.684;23.322;2023-02-01T05:56:09;8.33;;;3.73;;
22254;SDS011;11296;42.684;23.322;2023-02-01T05:58:34;5.37;;;3.53;;
22254;SDS011;11296;42.684;23.322;2023-02-01T06:01:02;5.90;;;2.53;;
22254;SDS011;11296;42.684;23.322;2023-02-01T06:03:28;7.43;;;3.40;;
22254;SDS011;11296;42.684;23.322;2023-02-01T06:05:53;6.53;;;3.10;;
22254;SDS011;11296;42.684;23.322;2023-02-01T06:08:19;4.67;;;3.30;;
22254;SDS011;11296;42.684;23.322;2023-02-01T06:10:44;5.10;;;3.07;;
22254;SDS011;11296;42.684;23.322;2023-02-01T06:13:10;5.67;;;2.70;;
22254;SDS011;11296;42.684;23.322;2023-02-01T06:15:35;5.47;;;3.07;;
22254;SDS011;11296;42.684;23.322;2023-02-01T06:18:03;5.60;;;2.97;;
22254;SDS011;11296;42.684;23.322;2023-02-01T06:20:29;6.83;;;2.73;;
22254;SDS011;11296;42.684;23.322;2023-02-01T06:22:55;9.07;;;3.40;;
22254;SDS011;11296;42.684;23.322;2023-02-01T06:25:22;4.47;;;3.00;;
22254;SDS011;11296;42.684;23.322;2023-02-01T06:27:48;9.60;;;4.10;;
22254;SDS011;11296;42.684;23.322;2023-02-01T06:30:13;7.63;;;2.80;;
22254;SDS011;11296;42.684;23.322;2023-02-01T06:32:43;7.30;;;3.13;;
22254;SDS011;11296;42.684;23.322;2023-02-01T06:35:11;7.80;;;5.00;;
22254;SDS011;11296;42.684;23.322;2023-02-01T06:37:44;6.43;;;3.20;;
22254;SDS011;11296;42.684;23.322;2023-02-01T06:40:10;5.53;;;3.30;;
22254;SDS011;11296;42.684;23.322;2023-02-01T06:42:35;6.40;;;2.90;;
22254;SDS011;11296;42.684;23.322;2023-02-01T06:45:08;5.57;;;3.57;;
22254;SDS011;11296;42.684;23.322;2023-02-01T06:47:34;7.93;;;3.80;;
22254;SDS011;11296;42.684;23.322;2023-02-01T06:52:36;6.30;;;3.00;;
22254;SDS011;11296;42.684;23.322;2023-02-01T06:55:11;7.77;;;2.80;;
22254;SDS011;11296;42.684;23.322;2023-02-01T06:58:07;5.70;;;3.00;;
22254;SDS011;11296;42.684;23.322;2023-02-01T07:00:43;7.67;;;3.33;;
22254;SDS011;11296;42.684;23.322;2023-02-01T07:03:09;6.83;;;2.97;;
22254;SDS011;11296;42.684;23.322;2023-02-01T07:05:39;5.73;;;3.93;;
22254;SDS011;11296;42.684;23.322;2023-02-01T07:08:06;8.77;;;3.40;;
22254;SDS011;11296;42.684;23.322;2023-02-01T07:10:49;5.70;;;3.33;;
22254;SDS011;11296;42.684;23.322;2023-02-01T07:13:16;5.40;;;3.20;;
22254;SDS011;11296;42.684;23.322;2023-02-01T07:15:51;9.37;;;3.20;;
22254;SDS011;11296;42.684;23.322;2023-02-01T07:18:28;7.97;;;2.90;;
22254;SDS011;11296;42.684;23.322;2023-02-01T07:29:55;6.03;;;3.33;;
22254;SDS011;11296;42.684;23.322;2023-02-01T07:32:24;6.53;;;3.10;;
22254;SDS011;11296;42.684;23.322;2023-02-01T07:34:49;5.23;;;2.27;;
22254;SDS011;11296;42.684;23.322;2023-02-01T07:37:27;7.43;;;2.73;;
22254;SDS011;11296;42.684;23.322;2023-02-01T07:39:55;6.20;;;2.50;;
22254;SDS011;11296;42.684;23.322;2023-02-01T07:42:20;6.07;;;3.10;;
22254;SDS011;11296;42.684;23.322;2023-02-01T07:44:46;7.50;;;3.70;;
22254;SDS011;11296;42.684;23.322;2023-02-01T07:47:12;4.93;;;2.60;;
22254;SDS011;11296;42.684;23.322;2023-02-01T07:49:37;13.27;;;7.60;;
22254;SDS011;11296;42.684;23.322;2023-02-01T07:52:03;9.67;;;5.37;;
22254;SDS011;11296;42.684;23.322;2023-02-01T07:54:31;7.13;;;2.60;;
22254;SDS011;11296;42.684;23.322;2023-02-01T07:57:02;6.43;;;3.10;;
22254;SDS011;11296;42.684;23.322;2023-02-01T07:59:30;5.27;;;2.20;;
22254;SDS011;11296;42.684;23.322;2023-02-01T08:01:56;6.80;;;3.13;;
22254;SDS011;11296;42.684;23.322;2023-02-01T08:04:21;2.77;;;1.80;;
22254;SDS011;11296;42.684;23.322;2023-02-01T08:06:47;6.07;;;2.03;;
22254;SDS011;11296;42.684;23.322;2023-02-01T08:09:12;5.07;;;2.27;;
22254;SDS011;11296;42.684;23.322;2023-02-01T08:11:39;5.70;;;2.57;;
22254;SDS011;11296;42.684;23.322;2023-02-01T08:14:05;6.67;;;2.80;;
22254;SDS011;11296;42.684;23.322;2023-02-01T08:16:41;4.67;;;3.17;;
22254;SDS011;11296;42.684;23.322;2023-02-01T08:19:06;4.20;;;2.60;;
22254;SDS011;11296;42.684;23.322;2023-02-01T08:21:32;4.73;;;2.63;;
22254;SDS011;11296;42.684;23.322;2023-02-01T08:24:07;7.47;;;2.77;;
22254;SDS011;11296;42.684;23.322;2023-02-01T08:26:34;6.50;;;3.20;;
22254;SDS011;11296;42.684;23.322;2023-02-01T08:29:02;4.63;;;2.73;;
22254;SDS011;11296;42.684;23.322;2023-02-01T08:31:29;4.83;;;3.13;;
22254;SDS011;11296;42.684;23.322;2023-02-01T08:33:56;5.50;;;2.90;;
22254;SDS011;11296;42.684;23.322;2023-02-01T08:36:23;6.97;;;2.80;;
22254;SDS011;11296;42.684;23.322;2023-02-01T08:38:49;6.60;;;3.03;;
22254;SDS011;11296;42.684;23.322;2023-02-01T08:41:16;11.83;;;3.97;;
22254;SDS011;11296;42.684;23.322;2023-02-01T08:43:42;6.53;;;2.93;;
22254;SDS011;11296;42.684;23.322;2023-02-01T08:46:09;10.77;;;3.53;;
22254;SDS011;11296;42.684;23.322;2023-02-01T08:48:35;5.47;;;2.50;;
22254;SDS011;11296;42.684;23.322;2023-02-01T08:51:01;7.37;;;2.27;;
22254;SDS011;11296;42.684;23.322;2023-02-01T08:53:28;5.50;;;1.90;;
22254;SDS011;11296;42.684;23.322;2023-02-01T08:55:54;4.93;;;2.10;;
22254;SDS011;11296;42.684;23.322;2023-02-01T08:58:19;4.83;;;2.27;;
22254;SDS011;11296;42.684;23.322;2023-02-01T09:00:47;3.47;;;1.90;;
22254;SDS011;11296;42.684;23.322;2023-02-01T09:03:13;2.93;;;1.70;;
22254;SDS011;11296;42.684;23.322;2023-02-01T09:05:39;3.40;;;1.60;;
22254;SDS011;11296;42.684;23.322;2023-02-01T09:08:04;4.73;;;2.13;;
22254;SDS011;11296;42.684;23.322;2023-02-01T09:10:30;3.60;;;2.20;;
22254;SDS011;11296;42.684;23.322;2023-02-01T09:12:55;3.50;;;1.50;;
22254;SDS011;11296;42.684;23.322;2023-02-01T09:15:21;4.63;;;1.80;;
22254;SDS011;11296;42.684;23.322;2023-02-01T09:17:46;5.43;;;2.03;;
22254;SDS011;11296;42.684;23.322;2023-02-01T09:20:12;9.90;;;4.23;;
22254;SDS011;11296;42.684;23.322;2023-02-01T09:22:38;7.17;;;2.83;;
22254;SDS011;11296;42.684;23.322;2023-02-01T09:25:05;6.03;;;2.80;;
22254;SDS011;11296;42.684;23.322;2023-02-01T09:27:33;5.30;;;3.60;;
22254;SDS011;11296;42.684;23.322;2023-02-01T09:29:59;5.60;;;3.80;;
22254;SDS011;11296;42.684;23.322;2023-02-01T09:32:25;4.23;;;2.03;;
22254;SDS011;11296;42.684;23.322;2023-02-01T09:34:52;4.87;;;2.13;;
22254;SDS011;11296;42.684;23.322;2023-02-01T09:37:18;6.83;;;2.80;;
22254;SDS011;11296;42.684;23.322;2023-02-01T09:39:43;7.70;;;2.70;;
22254;SDS011;11296;42.684;23.322;2023-02-01T09:47:13;4.13;;;2.10;;
22254;SDS011;11296;42.684;23.322;2023-02-01T09:49:43;3.90;;;1.60;;
22254;SDS011;11296;42.684;23.322;2023-02-01T09:52:13;4.47;;;1.83;;
22254;SDS011;11296;42.684;23.322;2023-02-01T09:54:50;5.37;;;2.10;;
22254;SDS011;11296;42.684;23.322;2023-02-01T09:57:22;5.73;;;2.00;;
22254;SDS011;11296;42.684;23.322;2023-02-01T09:59:51;4.03;;;2.23;;
22254;SDS011;11296;42.684;23.322;2023-02-01T10:02:21;7.00;;;2.87;;
22254;SDS011;11296;42.684;23.322;2023-02-01T10:04:48;3.97;;;2.50;;
22254;SDS011;11296;42.684;23.322;2023-02-01T10:07:18;7.40;;;2.17;;
22254;SDS011;11296;42.684;23.322;2023-02-01T10:12:42;7.13;;;4.17;;
22254;SDS011;11296;42.684;23.322;2023-02-01T10:18:08;3.37;;;2.00;;
22254;SDS011;11296;42.684;23.322;2023-02-01T10:20:44;2.87;;;2.00;;
22254;SDS011;11296;42.684;23.322;2023-02-01T10:28:32;3.07;;;2.23;;
22254;SDS011;11296;42.684;23.322;2023-02-01T10:30:59;3.97;;;2.10;;
22254;SDS011;11296;42.684;23.322;2023-02-01T10:33:26;2.83;;;1.53;;
22254;SDS011;11296;42.684;23.322;2023-02-01T10:36:01;5.53;;;2.00;;
22254;SDS011;11296;42.684;23.322;2023-02-01T10:38:30;3.70;;;2.00;;
22254;SDS011;11296;42.684;23.322;2023-02-01T10:41:09;2.57;;;1.97;;
22254;SDS011;11296;42.684;23.322;2023-02-01T10:43:37;4.33;;;2.03;;
22254;SDS011;11296;42.684;23.322;2023-02-01T10:46:04;3.13;;;1.80;;
22254;SDS011;11296;42.684;23.322;2023-02-01T10:48:30;4.67;;;2.03;;
22254;SDS011;11296;42.684;23.322;2023-02-01T10:50:58;4.90;;;1.80;;
22254;SDS011;11296;42.684;23.322;2023-02-01T10:53:29;4.63;;;2.00;;
22254;SDS011;11296;42.684;23.322;2023-02-01T10:55:57;3.03;;;1.50;;
22254;SDS011;11296;42.684;23.322;2023-02-01T10:58:27;4.17;;;2.30;;
22254;SDS011;11296;42.684;23.322;2023-02-01T11:00:56;3.87;;;1.90;;
22254;SDS011;11296;42.684;23.322;2023-02-01T11:03:43;2.63;;;1.70;;
22254;SDS011;11296;42.684;23.322;2023-02-01T11:08:44;4.97;;;1.77;;
22254;SDS011;11296;42.684;23.322;2023-02-01T11:11:10;3.03;;;1.60;;
22254;SDS011;11296;42.684;23.322;2023-02-01T11:13:38;2.17;;;1.60;;
22254;SDS011;11296;42.684;23.322;2023-02-01T11:16:04;2.33;;;1.47;;
22254;SDS011;11296;42.684;23.322;2023-02-01T11:18:31;4.27;;;1.80;;
22254;SDS011;11296;42.684;23.322;2023-02-01T11:20:58;1.57;;;1.40;;
22254;SDS011;11296;42.684;23.322;2023-02-01T11:23:25;4.30;;;1.80;;
22254;SDS011;11296;42.684;23.322;2023-02-01T11:25:58;3.63;;;1.73;;
22254;SDS011;11296;42.684;23.322;2023-02-01T11:28:25;3.67;;;1.53;;
22254;SDS011;11296;42.684;23.322;2023-02-01T11:30:53;2.23;;;1.40;;
22254;SDS011;11296;42.684;23.322;2023-02-01T11:33:20;3.33;;;1.50;;
22254;SDS011;11296;42.684;23.322;2023-02-01T11:35:51;1.83;;;1.27;;
22254;SDS011;11296;42.684;23.322;2023-02-01T11:40:42;1.77;;;1.23;;
22254;SDS011;11296;42.684;23.322;2023-02-01T11:45:35;3.13;;;1.30;;
22254;SDS011;11296;42.684;23.322;2023-02-01T11:48:02;4.33;;;1.60;;
22254;SDS011;11296;42.684;23.322;2023-02-01T12:08:44;1.17;;;0.90;;
22254;SDS011;11296;42.684;23.322;2023-02-01T12:11:22;1.63;;;1.17;;
22254;SDS011;11296;42.684;23.322;2023-02-01T12:26:50;2.57;;;1.60;;
22254;SDS011;11296;42.684;23.322;2023-02-01T12:31:57;2.70;;;1.60;;
22254;SDS011;11296;42.684;23.322;2023-02-01T12:37:29;2.27;;;1.53;;
22254;SDS011;11296;42.684;23.322;2023-02-01T12:42:32;3.13;;;1.47;;
22254;SDS011;11296;42.684;23.322;2023-02-01T12:45:18;4.70;;;1.93;;
22254;SDS011;11296;42.684;23.322;2023-02-01T12:47:57;4.77;;;1.70;;
22254;SDS011;11296;42.684;23.322;2023-02-01T12:50:35;1.27;;;1.17;;
22254;SDS011;11296;42.684;23.322;2023-02-01T12:53:12;2.33;;;1.43;;
22254;SDS011;11296;42.684;23.322;2023-02-01T12:55:49;3.70;;;1.63;;
22254;SDS011;11296;42.684;23.322;2023-02-01T12:58:36;4.37;;;1.80;;
22254;SDS011;11296;42.684;23.322;2023-02-01T13:01:47;2.20;;;1.10;;
22254;SDS011;11296;42.684;23.322;2023-02-01T13:03:59;2.87;;;1.80;;
22254;SDS011;11296;42.684;23.322;2023-02-01T13:11:44;2.07;;;1.40;;
22254;SDS011;11296;42.684;23.322;2023-02-01T13:16:46;3.60;;;1.63;;
22254;SDS011;11296;42.684;23.322;2023-02-01T13:19:14;2.57;;;1.13;;
22254;SDS011;11296;42.684;23.322;2023-02-01T13:21:45;3.37;;;1.80;;
22254;SDS011;11296;42.684;23.322;2023-02-01T13:24:20;2.40;;;1.60;;
22254;SDS011;11296;42.684;23.322;2023-02-01T13:26:47;2.97;;;1.40;;
22254;SDS011;11296;42.684;23.322;2023-02-01T13:29:13;3.83;;;1.57;;
22254;SDS011;11296;42.684;23.322;2023-02-01T13:37:08;3.00;;;1.53;;
22254;SDS011;11296;42.684;23.322;2023-02-01T13:47:13;1.43;;;1.13;;
22254;SDS011;11296;42.684;23.322;2023-02-01T13:49:41;3.27;;;1.40;;
22254;SDS011;11296;42.684;23.322;2023-02-01T13:52:17;3.00;;;1.37;;
22254;SDS011;11296;42.684;23.322;2023-02-01T13:54:46;2.20;;;1.40;;
22254;SDS011;11296;42.684;23.322;2023-02-01T14:01:31;3.80;;;1.67;;
22254;SDS011;11296;42.684;23.322;2023-02-01T14:10:56;3.27;;;1.97;;
22254;SDS011;11296;42.684;23.322;2023-02-01T14:13:31;4.57;;;2.53;;
22254;SDS011;11296;42.684;23.322;2023-02-01T14:26:26;3.63;;;1.87;;
22254;SDS011;11296;42.684;23.322;2023-02-01T14:33:55;3.17;;;1.50;;
22254;SDS011;11296;42.684;23.322;2023-02-01T14:36:21;2.77;;;1.40;;
22254;SDS011;11296;42.684;23.322;2023-02-01T14:38:48;2.77;;;1.60;;
22254;SDS011;11296;42.684;23.322;2023-02-01T14:41:23;2.87;;;1.20;;
22254;SDS011;11296;42.684;23.322;2023-02-01T14:43:50;2.10;;;1.63;;
22254;SDS011;11296;42.684;23.322;2023-02-01T14:46:16;2.57;;;1.40;;
22254;SDS011;11296;42.684;23.322;2023-02-01T14:48:42;4.07;;;1.50;;
22254;SDS011;11296;42.684;23.322;2023-02-01T14:51:09;2.10;;;1.60;;
22254;SDS011;11296;42.684;23.322;2023-02-01T14:53:36;4.20;;;2.10;;
22254;SDS011;11296;42.684;23.322;2023-02-01T14:58:52;4.97;;;2.40;;
22254;SDS011;11296;42.684;23.322;2023-02-01T15:01:25;3.53;;;2.27;;
22254;SDS011;11296;42.684;23.322;2023-02-01T15:03:59;5.47;;;2.33;;
22254;SDS011;11296;42.684;23.322;2023-02-01T15:09:18;2.67;;;1.70;;
22254;SDS011;11296;42.684;23.322;2023-02-01T15:12:00;3.13;;;1.90;;
22254;SDS011;11296;42.684;23.322;2023-02-01T15:14:27;2.57;;;1.60;;
22254;SDS011;11296;42.684;23.322;2023-02-01T15:16:53;3.20;;;2.10;;
22254;SDS011;11296;42.684;23.322;2023-02-01T15:19:24;4.03;;;1.80;;
22254;SDS011;11296;42.684;23.322;2023-02-01T15:21:50;2.47;;;1.60;;
22254;SDS011;11296;42.684;23.322;2023-02-01T15:26:47;4.43;;;2.17;;
22254;SDS011;11296;42.684;23.322;2023-02-01T15:29:13;7.47;;;4.83;;
22254;SDS011;11296;42.684;23.322;2023-02-01T15:31:40;4.77;;;3.23;;
22254;SDS011;11296;42.684;23.322;2023-02-01T15:34:06;5.40;;;2.53;;
22254;SDS011;11296;42.684;23.322;2023-02-01T15:36:32;7.60;;;2.47;;
22254;SDS011;11296;42.684;23.322;2023-02-01T15:39:15;3.83;;;2.53;;
22254;SDS011;11296;42.684;23.322;2023-02-01T15:41:49;7.10;;;3.03;;
22254;SDS011;11296;42.684;23.322;2023-02-01T15:47:18;7.70;;;2.60;;
22254;SDS011;11296;42.684;23.322;2023-02-01T15:49:47;7.53;;;3.07;;
22254;SDS011;11296;42.684;23.322;2023-02-01T15:55:00;4.80;;;1.97;;
22254;SDS011;11296;42.684;23.322;2023-02-01T15:57:33;3.40;;;1.80;;
22254;SDS011;11296;42.684;23.322;2023-02-01T16:00:03;2.67;;;1.50;;
22254;SDS011;11296;42.684;23.322;2023-02-01T16:02:41;3.40;;;1.90;;
22254;SDS011;11296;42.684;23.322;2023-02-01T16:08:20;3.80;;;1.80;;
22254;SDS011;11296;42.684;23.322;2023-02-01T16:10:48;3.63;;;1.50;;
22254;SDS011;11296;42.684;23.322;2023-02-01T16:13:14;5.73;;;1.80;;
22254;SDS011;11296;42.684;23.322;2023-02-01T16:15:40;4.10;;;1.90;;
22254;SDS011;11296;42.684;23.322;2023-02-01T16:18:06;3.50;;;1.60;;
22254;SDS011;11296;42.684;23.322;2023-02-01T16:20:33;3.60;;;1.57;;
22254;SDS011;11296;42.684;23.322;2023-02-01T16:23:04;3.30;;;1.77;;
22254;SDS011;11296;42.684;23.322;2023-02-01T16:25:29;2.40;;;1.60;;
22254;SDS011;11296;42.684;23.322;2023-02-01T16:27:55;3.40;;;1.60;;
22254;SDS011;11296;42.684;23.322;2023-02-01T16:30:20;2.57;;;1.97;;
22254;SDS011;11296;42.684;23.322;2023-02-01T16:32:56;4.30;;;1.73;;
22254;SDS011;11296;42.684;23.322;2023-02-01T16:35:28;5.17;;;1.80;;
22254;SDS011;11296;42.684;23.322;2023-02-01T16:37:56;3.73;;;2.30;;
22254;SDS011;11296;42.684;23.322;2023-02-01T16:40:23;3.23;;;2.00;;
22254;SDS011;11296;42.684;23.322;2023-02-01T16:42:51;3.37;;;1.90;;
22254;SDS011;11296;42.684;23.322;2023-02-01T16:45:18;3.47;;;2.37;;
22254;SDS011;11296;42.684;23.322;2023-02-01T16:47:45;3.57;;;1.90;;
22254;SDS011;11296;42.684;23.322;2023-02-01T16:50:21;5.23;;;2.17;;
22254;SDS011;11296;42.684;23.322;2023-02-01T16:52:48;3.60;;;1.90;;
22254;SDS011;11296;42.684;23.322;2023-02-01T16:55:16;3.77;;;2.23;;
22254;SDS011;11296;42.684;23.322;2023-02-01T16:57:42;4.33;;;2.07;;
22254;SDS011;11296;42.684;23.322;2023-02-01T17:00:08;4.27;;;1.97;;
22254;SDS011;11296;42.684;23.322;2023-02-01T17:02:34;5.27;;;2.57;;
22254;SDS011;11296;42.684;23.322;2023-02-01T17:04:59;5.73;;;2.63;;
22254;SDS011;11296;42.684;23.322;2023-02-01T17:07:24;4.47;;;2.27;;
22254;SDS011;11296;42.684;23.322;2023-02-01T17:09:51;3.07;;;2.10;;
22254;SDS011;11296;42.684;23.322;2023-02-01T17:12:27;4.53;;;2.50;;
22254;SDS011;11296;42.684;23.322;2023-02-01T17:14:54;4.60;;;2.33;;
22254;SDS011;11296;42.684;23.322;2023-02-01T17:17:20;3.60;;;2.30;;
22254;SDS011;11296;42.684;23.322;2023-02-01T17:19:46;3.73;;;2.07;;
22254;SDS011;11296;42.684;23.322;2023-02-01T17:22:13;4.90;;;2.20;;
22254;SDS011;11296;42.684;23.322;2023-02-01T17:24:38;4.87;;;2.30;;
22254;SDS011;11296;42.684;23.322;2023-02-01T17:27:04;5.80;;;2.50;;
22254;SDS011;11296;42.684;23.322;2023-02-01T17:29:29;2.80;;;1.83;;
22254;SDS011;11296;42.684;23.322;2023-02-01T17:31:56;4.40;;;2.47;;
22254;SDS011;11296;42.684;23.322;2023-02-01T17:34:24;3.20;;;1.90;;
22254;SDS011;11296;42.684;23.322;2023-02-01T17:36:50;5.40;;;2.50;;
22254;SDS011;11296;42.684;23.322;2023-02-01T17:39:15;5.00;;;2.57;;
22254;SDS011;11296;42.684;23.322;2023-02-01T17:42:00;4.60;;;2.50;;
22254;SDS011;11296;42.684;23.322;2023-02-01T17:44:25;4.10;;;2.10;;
22254;SDS011;11296;42.684;23.322;2023-02-01T17:46:54;4.73;;;2.23;;
22254;SDS011;11296;42.684;23.322;2023-02-01T17:49:21;3.00;;;1.80;;